Algodones, New Mexico
Current Conditions -  °F | °C
As of 8:52 AM on Wednesday 28 Jan 2015 (Local Time) from KABQ Reporting Station
Few Clouds Few Clouds  
Wind Chill: 39°   Ceiling: Unl
Heat Index: 43°   Visibility: 10mi
Dew Point: 34°   Wind: 7mph
Humidity: 71%   Direction: 130°SE
Pressure: 30.29"   Gusts: NA
Location:  35.38°N, 106.48°W
Report Text: KABQ 281552Z 13006KT 10SM FEW040 FEW250 06/01 A3029 RMK AO2 SLP243 T00610011
Loading
Personal Weather Stations






























Interactive Weather Map New forecast layout! Learn more

10-Day Weather Forecast

Advertisements
Track Severe Weather on mobile